sensor_id;sensor_type;location;lat;lon;timestamp;pressure;altitude;pressure_sealevel;temperature;humidity
76331;BME280;65148;51.912;15.570;2023-02-22T00:09:17;101618.15;;;4.63;100.00
76331;BME280;65148;51.912;15.570;2023-02-22T00:24:21;101614.47;;;4.75;100.00
76331;BME280;65148;51.912;15.570;2023-02-22T00:39:51;101620.05;;;5.22;99.34
76331;BME280;65148;51.912;15.570;2023-02-22T00:54:53;101618.11;;;5.29;98.07
76331;BME280;65148;51.912;15.570;2023-02-22T01:09:54;101607.94;;;5.13;96.95
76331;BME280;65148;51.912;15.570;2023-02-22T01:24:55;101619.27;;;4.73;94.86
76331;BME280;65148;51.912;15.570;2023-02-22T01:39:56;101622.04;;;4.30;93.46
76331;BME280;65148;51.912;15.570;2023-02-22T01:54:58;101623.91;;;3.87;93.48
76331;BME280;65148;51.912;15.570;2023-02-22T02:10:07;101620.31;;;3.43;93.74
76331;BME280;65148;51.912;15.570;2023-02-22T02:55:58;101608.27;;;2.76;94.60
76331;BME280;65148;51.912;15.570;2023-02-22T03:11:06;101610.42;;;2.54;94.39
76331;BME280;65148;51.912;15.570;2023-02-22T03:26:20;101619.16;;;2.30;94.36
76331;BME280;65148;51.912;15.570;2023-02-22T03:41:48;101625.23;;;1.93;95.98
76331;BME280;65148;51.912;15.570;2023-02-22T03:57:18;101628.11;;;1.91;95.56
76331;BME280;65148;51.912;15.570;2023-02-22T04:12:12;101629.16;;;1.83;95.11
76331;BME280;65148;51.912;15.570;2023-02-22T04:27:14;101635.15;;;1.72;95.17
76331;BME280;65148;51.912;15.570;2023-02-22T04:42:18;101636.77;;;1.73;95.53
76331;BME280;65148;51.912;15.570;2023-02-22T04:57:19;101626.27;;;1.72;96.09
76331;BME280;65148;51.912;15.570;2023-02-22T05:12:52;101625.42;;;1.65;97.48
76331;BME280;65148;51.912;15.570;2023-02-22T05:27:56;101625.84;;;1.88;97.84
76331;BME280;65148;51.912;15.570;2023-02-22T05:42:58;101621.30;;;1.89;97.14
76331;BME280;65148;51.912;15.570;2023-02-22T05:58:01;101639.07;;;1.83;96.91
76331;BME280;65148;51.912;15.570;2023-02-22T06:13:06;101642.56;;;1.77;97.06
76331;BME280;65148;51.912;15.570;2023-02-22T06:28:07;101655.58;;;1.80;97.92
76331;BME280;65148;51.912;15.570;2023-02-22T06:43:08;101663.85;;;1.92;98.09
76331;BME280;65148;51.912;15.570;2023-02-22T06:58:38;101677.48;;;2.03;100.00
76331;BME280;65148;51.912;15.570;2023-02-22T07:13:41;101687.55;;;2.41;100.00
76331;BME280;65148;51.912;15.570;2023-02-22T07:28:42;101699.82;;;3.01;100.00
76331;BME280;65148;51.912;15.570;2023-02-22T07:43:45;101692.59;;;3.71;100.00
76331;BME280;65148;51.912;15.570;2023-02-22T07:58:46;101684.78;;;4.37;100.00
76331;BME280;65148;51.912;15.570;2023-02-22T08:13:50;101687.58;;;5.04;100.00
76331;BME280;65148;51.912;15.570;2023-02-22T08:28:51;101684.98;;;5.57;100.00
76331;BME280;65148;51.912;15.570;2023-02-22T08:43:57;101684.20;;;6.56;100.00
76331;BME280;65148;51.912;15.570;2023-02-22T08:59:27;101683.12;;;7.21;96.99
76331;BME280;65148;51.912;15.570;2023-02-22T09:14:30;101694.49;;;7.80;94.09
76331;BME280;65148;51.912;15.570;2023-02-22T09:29:31;101694.69;;;8.06;88.25
76331;BME280;65148;51.912;15.570;2023-02-22T09:44:42;101694.34;;;8.92;86.18
76331;BME280;65148;51.912;15.570;2023-02-22T10:30:32;101689.83;;;10.84;57.71
76331;BME280;65148;51.912;15.570;2023-02-22T10:45:36;101675.94;;;10.33;61.95
76331;BME280;65148;51.912;15.570;2023-02-22T11:00:38;101676.32;;;10.15;63.48
76331;BME280;65148;51.912;15.570;2023-02-22T11:15:39;101671.05;;;10.03;62.11
76331;BME280;65148;51.912;15.570;2023-02-22T11:30:41;101660.36;;;9.92;63.55
76331;BME280;65148;51.912;15.570;2023-02-22T12:16:57;101629.16;;;10.98;59.59
76331;BME280;65148;51.912;15.570;2023-02-22T12:32:14;101620.60;;;11.83;56.69
76331;BME280;65148;51.912;15.570;2023-02-22T12:47:44;101618.37;;;12.25;54.17
76331;BME280;65148;51.912;15.570;2023-02-22T13:02:56;101612.92;;;11.69;56.25
76331;BME280;65148;51.912;15.570;2023-02-22T13:49:03;101594.41;;;11.82;55.55
76331;BME280;65148;51.912;15.570;2023-02-22T14:04:35;101594.31;;;11.16;56.90
76331;BME280;65148;51.912;15.570;2023-02-22T14:19:37;101593.01;;;11.69;55.29
76331;BME280;65148;51.912;15.570;2023-02-22T14:49:54;101590.56;;;11.52;54.47
76331;BME280;65148;51.912;15.570;2023-02-22T15:04:56;101595.66;;;11.08;55.37
76331;BME280;65148;51.912;15.570;2023-02-22T15:20:24;101588.75;;;10.70;57.64
76331;BME280;65148;51.912;15.570;2023-02-22T15:35:29;101596.59;;;10.61;58.96
76331;BME280;65148;51.912;15.570;2023-02-22T15:50:33;101594.34;;;10.06;60.00
76331;BME280;65148;51.912;15.570;2023-02-22T16:05:43;101591.41;;;9.44;61.94
76331;BME280;65148;51.912;15.570;2023-02-22T16:36:02;101603.03;;;8.25;67.01
76331;BME280;65148;51.912;15.570;2023-02-22T16:51:26;101625.66;;;7.64;69.80
76331;BME280;65148;51.912;15.570;2023-02-22T17:06:28;101633.81;;;7.36;72.42
76331;BME280;65148;51.912;15.570;2023-02-22T17:21:30;101636.93;;;6.99;76.61
76331;BME280;65148;51.912;15.570;2023-02-22T17:36:33;101631.20;;;6.84;79.09
76331;BME280;65148;51.912;15.570;2023-02-22T17:51:38;101629.04;;;6.57;81.60
76331;BME280;65148;51.912;15.570;2023-02-22T18:06:39;101615.19;;;6.31;83.23
76331;BME280;65148;51.912;15.570;2023-02-22T18:21:40;101611.20;;;6.10;84.38
76331;BME280;65148;51.912;15.570;2023-02-22T18:36:41;101621.38;;;5.84;85.21
76331;BME280;65148;51.912;15.570;2023-02-22T18:51:43;101613.36;;;5.66;85.71
76331;BME280;65148;51.912;15.570;2023-02-22T19:07:09;101616.95;;;5.37;87.01
76331;BME280;65148;51.912;15.570;2023-02-22T19:22:17;101621.26;;;5.26;87.36
76331;BME280;65148;51.912;15.570;2023-02-22T19:37:18;101607.84;;;5.20;87.27
76331;BME280;65148;51.912;15.570;2023-02-22T19:52:22;101611.09;;;5.10;87.44
76331;BME280;65148;51.912;15.570;2023-02-22T20:07:24;101608.72;;;5.02;87.34
76331;BME280;65148;51.912;15.570;2023-02-22T20:22:25;101612.07;;;4.86;87.39
76331;BME280;65148;51.912;15.570;2023-02-22T20:37:26;101609.08;;;4.75;87.84
76331;BME280;65148;51.912;15.570;2023-02-22T20:52:28;101595.74;;;4.62;88.16
76331;BME280;65148;51.912;15.570;2023-02-22T21:07:29;101585.51;;;4.53;88.36
76331;BME280;65148;51.912;15.570;2023-02-22T21:22:53;101579.95;;;4.29;88.96
76331;BME280;65148;51.912;15.570;2023-02-22T21:37:55;101579.74;;;4.31;88.75
76331;BME280;65148;51.912;15.570;2023-02-22T21:52:57;101572.75;;;4.23;88.54
76331;BME280;65148;51.912;15.570;2023-02-22T22:07:59;101560.58;;;4.21;88.21
76331;BME280;65148;51.912;15.570;2023-02-22T22:23:02;101551.27;;;4.17;87.83
76331;BME280;65148;51.912;15.570;2023-02-22T22:38:04;101544.32;;;4.09;87.43
76331;BME280;65148;51.912;15.570;2023-02-22T22:53:06;101549.63;;;3.97;87.47
76331;BME280;65148;51.912;15.570;2023-02-22T23:08:07;101537.72;;;3.87;87.37
76331;BME280;65148;51.912;15.570;2023-02-22T23:23:12;101532.59;;;3.79;87.53
76331;BME280;65148;51.912;15.570;2023-02-22T23:38:37;101538.78;;;3.61;87.63
76331;BME280;65148;51.912;15.570;2023-02-22T23:53:41;101535.05;;;3.37;88.42
